Terminal Aerodrome Forecast
Issued by NWS

Home | Current Version | Previous Version | Text Only | Print | Product List | Glossary On
Versions: 1 2 3 4 5 6 7 8 9 10 11 12 13 14 15 16 17 18 19 20 21 22 23 24 25 26 27 28 29 30 31 32 33
000
FTUS46 KLOX 270258 AAA
TAFLAX
TAF AMD
KLAX 270258Z 2703/2806 27009KT P6SM FEW016
     FM270500 27006KT P6SM BKN015
     FM270700 VRB03KT P6SM OVC015
     FM271900 24006KT P6SM SCT020
     FM272100 26014KT P6SM FEW020
     FM280200 26010KT P6SM BKN012=

USA.gov is the U.S. government's official web portal to all federal, state and local government web resources and services.